Time;durP1;ratioP1;P1;durP2;ratioP2;P2;SDS_P1;SDS_P2;PMS_P1;PMS_P2;Temp;Humidity;BMP_temperature;BMP_pressure;BME280_temperature;BME280_humidity;BME280_pressure;Samples;Min_cycle;Max_cycle;Signal;HPM_P1;HPM_P2
2021/12/17 00:00:17;;;;;;;32.93;5.87;;;;;;;4.50;87.08;102384.42;1668296;84;98418;-71
2021/12/17 00:05:31;;;;;;;32.80;5.28;;;;;;;4.50;87.02;102381.77;1670347;84;98608;-70
2021/12/17 00:07:49;;;;;;;35.75;5.17;;;;;;;4.47;87.00;102368.03;1664762;84;25683;-73
2021/12/17 00:10:18;;;;;;;25.37;5.80;;;;;;;4.48;87.01;102379.53;1673616;84;26312;-69
2021/12/17 00:12:46;;;;;;;27.10;5.62;;;;;;;4.47;87.01;102379.09;1688147;81;98556;-71
2021/12/17 00:15:13;;;;;;;47.88;7.42;;;;;;;4.48;86.99;102386.17;1687939;81;26835;-69
2021/12/17 00:17:50;;;;;;;30.75;5.28;;;;;;;4.46;86.96;102383.51;1682867;83;98543;-71
2021/12/17 00:50:17;;;;;;;39.75;6.42;;;;;;;4.35;87.02;102413.48;1702640;82;26328;-72
2021/12/17 00:52:34;;;;;;;20.92;4.83;;;;;;;4.35;87.05;102413.48;1703280;82;25834;-69
2021/12/17 00:55:02;;;;;;;34.88;5.03;;;;;;;4.36;87.12;102411.28;1697788;82;98559;-70
2021/12/17 00:57:35;;;;;;;37.23;5.25;;;;;;;4.34;87.07;102408.61;1703175;82;25816;-70
2021/12/17 00:59:57;;;;;;;32.05;5.75;;;;;;;4.34;87.08;102417.00;1697438;82;98499;-69
2021/12/17 01:02:28;;;;;;;37.90;6.75;;;;;;;4.31;87.05;102398.39;1697968;82;25944;-71
2021/12/17 01:04:59;;;;;;;22.67;5.25;;;;;;;4.28;87.09;102404.56;1699011;83;25878;-71
2021/12/17 01:07:30;;;;;;;25.88;5.47;;;;;;;4.26;87.11;102401.44;1693888;83;98385;-71
2021/12/17 01:09:57;;;;;;;;;;;;;;;4.25;87.15;102397.89;1696913;82;25484;-70
2021/12/17 01:12:24;;;;;;;32.28;5.30;;;;;;;4.24;87.17;102394.78;1701058;82;83950;-70
2021/12/17 01:14:52;;;;;;;26.48;6.78;;;;;;;4.20;87.19;102383.25;1696864;82;26363;-70
2021/12/17 01:17:22;;;;;;;22.13;5.70;;;;;;;4.18;87.21;102379.69;1696317;82;98746;-70
2021/12/17 01:22:59;;;;;;;38.60;5.35;;;;;;;4.14;87.25;102387.59;1697548;83;26207;-71
2021/12/17 01:25:35;;;;;;;25.57;5.37;;;;;;;4.12;87.28;102382.71;1695690;82;97776;-71
2021/12/17 01:35:58;;;;;;;18.85;4.97;;;;;;;4.04;87.42;102375.99;1694003;82;98589;-69
2021/12/17 01:41:45;;;;;;;34.05;6.83;;;;;;;4.02;87.46;102380.39;1694296;82;98787;-70
2021/12/17 01:43:53;;;;;;;37.23;5.67;;;;;;;4.02;87.51;102380.39;1698035;82;25794;-70
2021/12/17 01:46:24;;;;;;;35.55;6.58;;;;;;;4.04;87.51;102380.41;1699633;82;27570;-70
2021/12/17 02:00:06;;;;;;;35.17;6.12;;;;;;;4.03;87.64;102368.02;1697814;82;98535;-71
2021/12/17 02:02:40;;;;;;;29.02;5.37;;;;;;;4.04;87.66;102378.64;1697626;82;25804;-71
2021/12/17 02:05:02;;;;;;;27.85;4.67;;;;;;;4.06;87.71;102372.92;1697713;82;98657;-71
2021/12/17 02:07:28;;;;;;;31.15;5.95;;;;;;;4.07;87.71;102377.35;1699845;82;26293;-71
2021/12/17 02:13:03;;;;;;;27.80;4.58;;;;;;;4.10;87.70;102372.52;1693722;83;98541;-71
2021/12/17 02:32:03;;;;;;;28.30;4.55;;;;;;;3.95;87.72;102363.06;1700138;81;25908;-70
2021/12/17 02:34:40;;;;;;;33.23;5.40;;;;;;;3.89;87.75;102354.16;1715103;82;26466;-70
2021/12/17 02:37:02;;;;;;;33.67;5.30;;;;;;;3.86;87.76;102360.75;1694564;82;98643;-71
2021/12/17 02:39:55;;;;;;;26.33;5.72;;;;;;;3.85;87.79;102351.45;1663490;84;27466;-70
2021/12/17 02:47:24;;;;;;;23.55;4.55;;;;;;;3.78;87.80;102358.88;1696186;82;26303;-72
2021/12/17 02:49:50;;;;;;;36.23;4.80;;;;;;;3.75;87.82;102372.11;1695435;82;98473;-70
2021/12/17 02:52:17;;;;;;;25.77;5.72;;;;;;;3.72;87.82;102373.39;1690567;83;27389;-69
2021/12/17 02:54:45;;;;;;;27.35;4.55;;;;;;;3.69;87.83;102361.42;1688355;83;98510;-69
2021/12/17 02:57:12;;;;;;;33.05;5.92;;;;;;;3.65;87.87;102372.43;1670579;84;26091;-70
2021/12/17 02:59:39;;;;;;;33.65;4.80;;;;;;;3.61;87.84;102378.56;1696088;83;98794;-69
2021/12/17 03:02:08;;;;;;;24.35;5.10;;;;;;;3.58;87.87;102385.16;1693430;82;25901;-72
2021/12/17 03:04:37;;;;;;;34.75;5.35;;;;;;;3.54;87.88;102388.63;1690125;83;28458;-70
2021/12/17 03:07:03;;;;;;;29.60;5.47;;;;;;;3.51;87.88;102393.89;1698464;82;98583;-69
2021/12/17 03:12:27;;;;;;;22.80;4.42;;;;;;;3.47;88.04;102386.33;1687771;83;98875;-70
2021/12/17 03:14:52;;;;;;;32.48;5.62;;;;;;;3.46;88.09;102381.91;1695465;81;25961;-72
2021/12/17 03:17:19;;;;;;;27.90;5.87;;;;;;;3.44;88.12;102387.62;1687440;84;27465;-72
2021/12/17 03:25:07;;;;;;;27.73;5.35;;;;;;;3.41;88.28;102376.97;1693592;82;98583;-70
2021/12/17 03:27:33;;;;;;;35.15;6.17;;;;;;;3.39;88.29;102385.77;1692726;83;25990;-70
2021/12/17 03:30:00;;;;;;;31.55;6.17;;;;;;;3.36;88.30;102388.38;1696932;82;98647;-70
2021/12/17 03:32:26;;;;;;;29.25;5.67;;;;;;;3.36;88.33;102389.70;1690812;84;25871;-71
2021/12/17 03:34:52;;;;;;;27.65;5.28;;;;;;;3.34;88.39;102383.06;1689985;82;25839;-69
2021/12/17 03:37:18;;;;;;;37.35;6.67;;;;;;;3.32;88.38;102383.47;1688394;83;98649;-71
2021/12/17 03:39:45;;;;;;;44.80;7.10;;;;;;;3.29;88.41;102374.16;1688836;83;26648;-72
2021/12/17 03:42:11;;;;;;;30.10;5.70;;;;;;;3.26;88.42;102381.63;1663385;84;99034;-71
2021/12/17 03:44:37;;;;;;;21.80;5.37;;;;;;;3.23;88.42;102379.36;1661981;84;25863;-72
2021/12/17 03:47:05;;;;;;;23.95;5.97;;;;;;;3.21;88.44;102381.10;1662736;84;25861;-72
2021/12/17 03:49:33;;;;;;;29.50;6.17;;;;;;;3.18;88.43;102372.67;1672401;82;98634;-69
2021/12/17 03:52:05;;;;;;;28.32;5.87;;;;;;;3.17;88.46;102376.63;1676556;83;25883;-70
2021/12/17 03:54:36;;;;;;;33.75;6.25;;;;;;;3.16;88.53;102374.84;1691492;83;98532;-69
2021/12/17 03:57:07;;;;;;;35.17;6.67;;;;;;;3.14;88.61;102374.83;1691348;83;26545;-70
2021/12/17 03:59:33;;;;;;;25.05;5.97;;;;;;;3.14;88.62;102368.63;1681595;83;98712;-72
2021/12/17 04:01:59;;;;;;;37.15;5.35;;;;;;;3.13;88.62;102367.74;1679073;83;25962;-70
2021/12/17 04:04:25;;;;;;;28.00;6.25;;;;;;;3.11;88.66;102365.94;1679495;83;26668;-70
2021/12/17 04:06:51;;;;;;;34.38;6.75;;;;;;;3.10;88.67;102358.86;1680534;83;98658;-70
2021/12/17 04:09:20;;;;;;;36.85;5.37;;;;;;;3.10;88.75;102361.51;1675600;82;25929;-70
2021/12/17 04:11:45;;;;;;;27.90;6.60;;;;;;;3.10;88.81;102367.70;1678862;82;98737;-70
2021/12/17 04:14:11;;;;;;;28.27;5.87;;;;;;;3.11;88.92;102355.34;1680179;83;26487;-70
2021/12/17 04:16:37;;;;;;;36.77;8.63;;;;;;;3.10;88.91;102354.88;1697547;83;25773;-71
2021/12/17 04:19:03;;;;;;;32.60;7.10;;;;;;;3.09;88.94;102353.99;1675402;83;98544;-70
2021/12/17 04:21:29;;;;;;;29.32;5.33;;;;;;;3.07;88.98;102348.22;1693132;83;25754;-70
2021/12/17 04:23:55;;;;;;;29.98;5.60;;;;;;;3.07;88.99;102356.16;1663706;85;98673;-70
2021/12/17 04:26:24;;;;;;;28.80;5.80;;;;;;;3.07;89.08;102342.48;1697099;83;25863;-69
2021/12/17 04:28:52;;;;;;;31.48;5.97;;;;;;;3.06;89.15;102330.55;1681706;83;26492;-70
2021/12/17 04:31:24;;;;;;;21.50;5.85;;;;;;;3.04;89.18;102329.62;1670382;83;98554;-70
2021/12/17 04:33:49;;;;;;;46.58;6.42;;;;;;;3.03;89.30;102331.82;1678079;82;26007;-69
2021/12/17 04:36:22;;;;;;;27.77;5.78;;;;;;;3.03;89.39;102336.69;1681350;82;98479;-69
2021/12/17 04:38:44;;;;;;;19.25;6.55;;;;;;;3.04;89.43;102329.62;1680465;83;26502;-70
2021/12/17 04:44:15;;;;;;;32.90;6.25;;;;;;;3.05;89.56;102327.44;1679078;82;98371;-69
2021/12/17 04:46:50;;;;;;;30.23;7.78;;;;;;;3.08;89.62;102329.70;1681439;83;25473;-70
2021/12/17 04:57:35;;;;;;;32.13;7.90;;;;;;;3.15;89.85;102309.48;1683618;82;27391;-70
2021/12/17 05:00:25;;;;;;;29.15;6.78;;;;;;;3.14;89.85;102310.34;1709286;82;99041;-69
2021/12/17 05:02:56;;;;;;;32.83;6.97;;;;;;;3.18;90.01;102329.39;1706871;82;25725;-69
2021/12/17 05:05:28;;;;;;;41.95;7.17;;;;;;;3.20;90.05;102321.03;1707370;82;25875;-70
2021/12/17 05:08:00;;;;;;;33.35;6.72;;;;;;;3.21;90.04;102331.64;1703961;82;98388;-70
2021/12/17 05:10:43;;;;;;;33.40;6.20;;;;;;;3.24;90.11;102321.09;1703276;82;27460;-70
2021/12/17 05:18:24;;;;;;;45.67;6.05;;;;;;;3.33;90.14;102338.87;1703721;82;98667;-70
2021/12/17 05:20:51;;;;;;;26.93;6.30;;;;;;;3.34;90.13;102340.66;1701243;82;25664;-71
2021/12/17 05:23:23;;;;;;;30.43;5.87;;;;;;;3.35;90.14;102329.19;1700803;82;27319;-70
2021/12/17 05:25:48;;;;;;;29.37;5.33;;;;;;;3.35;90.10;102319.91;1708228;82;98561;-70
2021/12/17 05:28:14;;;;;;;36.05;5.72;;;;;;;3.35;90.13;102321.67;1708135;82;25798;-69
2021/12/17 05:30:45;;;;;;;37.78;5.97;;;;;;;3.35;90.11;102343.77;1703705;82;98723;-70
2021/12/17 05:33:07;;;;;;;34.30;7.65;;;;;;;3.37;90.16;102328.77;1707295;82;25698;-70
2021/12/17 05:35:33;;;;;;;42.75;7.10;;;;;;;3.30;90.08;102322.93;1708639;82;27463;-69
2021/12/17 05:37:59;;;;;;;28.73;4.92;;;;;;;3.35;90.08;102333.59;1701863;82;98391;-70
2021/12/17 05:40:25;;;;;;;30.95;6.17;;;;;;;3.32;90.02;102329.14;1699703;82;25916;-70
2021/12/17 05:42:55;;;;;;;32.17;5.45;;;;;;;3.32;90.07;102316.33;1701713;82;98445;-70
2021/12/17 05:45:32;;;;;;;33.60;5.60;;;;;;;3.31;90.03;102320.73;1698966;82;25904;-70
2021/12/17 05:47:49;;;;;;;29.80;5.90;;;;;;;3.29;89.98;102324.23;1699135;82;98596;-70
2021/12/17 05:50:16;;;;;;;34.43;6.17;;;;;;;3.28;89.99;102330.41;1698725;82;26164;-70
2021/12/17 05:52:42;;;;;;;35.33;6.20;;;;;;;3.28;89.99;102333.05;1704729;82;25856;-70
2021/12/17 05:55:08;;;;;;;33.25;6.92;;;;;;;3.30;90.00;102336.62;1696509;82;98479;-71
2021/12/17 05:57:34;;;;;;;23.75;5.50;;;;;;;3.29;89.95;102356.93;1696510;82;25785;-70
2021/12/17 06:00:00;;;;;;;20.15;4.53;;;;;;;3.31;89.99;102349.89;1704894;82;98737;-70
2021/12/17 06:02:26;;;;;;;29.57;5.50;;;;;;;3.30;89.91;102354.73;1689062;82;26002;-70
2021/12/17 06:04:51;;;;;;;30.97;6.12;;;;;;;3.30;89.89;102367.09;1698507;82;25820;-70
2021/12/17 06:07:27;;;;;;;35.43;6.40;;;;;;;3.29;89.86;102347.66;1716104;83;97690;-70
2021/12/17 06:09:53;;;;;;;41.53;7.45;;;;;;;3.30;89.87;102357.38;1715224;81;25874;-70
2021/12/17 06:12:18;;;;;;;40.10;6.83;;;;;;;3.30;89.82;102356.49;1699814;82;98712;-70
2021/12/17 06:14:46;;;;;;;31.80;6.33;;;;;;;3.26;89.78;102356.45;1685416;83;25991;-70
2021/12/17 06:17:12;;;;;;;32.50;6.20;;;;;;;3.25;89.76;102359.97;1707021;81;25731;-70
2021/12/17 06:19:38;;;;;;;32.38;5.65;;;;;;;3.23;89.75;102372.73;1697242;82;98487;-71
2021/12/17 06:22:04;;;;;;;31.90;5.72;;;;;;;3.24;89.76;102366.14;1697896;82;25863;-70
2021/12/17 06:24:31;;;;;;;25.23;5.35;;;;;;;3.25;89.77;102369.68;1685046;83;98578;-71
2021/12/17 06:26:57;;;;;;;28.92;5.90;;;;;;;3.24;89.77;102368.79;1702854;82;25766;-70
2021/12/17 06:29:23;;;;;;;26.42;6.33;;;;;;;3.23;89.74;102369.66;1696141;82;25853;-71
2021/12/17 06:31:49;;;;;;;37.55;7.10;;;;;;;3.23;89.69;102374.06;1698186;82;98574;-69
2021/12/17 06:34:15;;;;;;;32.88;7.15;;;;;;;3.21;89.68;102371.83;1701506;82;25764;-70
2021/12/17 06:36:41;;;;;;;42.08;6.87;;;;;;;3.22;89.74;102374.94;1681291;82;98507;-71
2021/12/17 06:39:06;;;;;;;29.50;6.30;;;;;;;3.22;89.71;102369.64;1678494;82;26286;-69
2021/12/17 06:41:32;;;;;;;34.10;6.28;;;;;;;3.23;89.72;102377.61;1674117;82;26671;-71
2021/12/17 06:43:59;;;;;;;33.42;6.12;;;;;;;3.23;89.72;102382.91;1678313;83;98303;-71
2021/12/17 06:46:35;;;;;;;35.05;7.03;;;;;;;3.20;89.69;102378.89;1649977;84;26271;-71
2021/12/17 06:49:19;;;;;;;39.05;6.12;;;;;;;3.21;89.70;102375.80;1708880;82;98500;-74
2021/12/17 07:00:06;;;;;;;46.92;7.90;;;;;;;3.21;89.65;102382.42;1678184;83;98685;-70
2021/12/17 07:32:48;;;;;;;34.30;7.33;;;;;;;3.49;89.57;102401.83;1677178;83;97551;-69
2021/12/17 07:34:49;;;;;;;37.33;7.10;;;;;;;3.56;89.54;102405.45;1638663;85;25957;-69
2021/12/17 07:39:40;;;;;;;39.27;6.87;;;;;;;3.63;89.46;102403.77;1677393;83;25745;-69
2021/12/17 07:42:06;;;;;;;28.30;7.62;;;;;;;3.64;89.38;102398.92;1679868;82;98588;-70
2021/12/17 07:44:32;;;;;;;35.05;7.03;;;;;;;3.65;89.34;102397.62;1675126;82;25891;-72
2021/12/17 07:46:58;;;;;;;36.20;7.33;;;;;;;3.71;89.33;102410.95;1685599;82;26531;-72
2021/12/17 07:49:24;;;;;;;41.42;7.90;;;;;;;3.74;89.31;102422.04;1678989;82;98531;-72
2021/12/17 07:51:51;;;;;;;31.65;6.35;;;;;;;3.77;89.24;102418.10;1681788;83;25855;-72
2021/12/17 07:54:18;;;;;;;24.70;6.12;;;;;;;3.79;89.17;102420.34;1680718;83;98724;-72
2021/12/17 07:56:45;;;;;;;32.10;6.10;;;;;;;3.79;89.10;102419.91;1685391;83;26425;-73
2021/12/17 07:59:13;;;;;;;35.40;7.12;;;;;;;3.82;89.01;102419.05;1709604;82;25832;-73
2021/12/17 08:01:40;;;;;;;31.35;6.35;;;;;;;3.84;88.93;102415.55;1703828;82;98492;-72
2021/12/17 08:04:08;;;;;;;28.42;5.53;;;;;;;3.87;88.84;102426.63;1700745;82;25865;-72
2021/12/17 08:06:35;;;;;;;25.77;6.47;;;;;;;3.86;88.81;102423.52;1701665;82;98567;-72
2021/12/17 08:09:03;;;;;;;32.35;7.60;;;;;;;3.91;88.78;102423.15;1685685;82;25915;-72
2021/12/17 08:11:31;;;;;;;23.02;5.95;;;;;;;3.91;88.71;102432.00;1683377;82;25981;-69
2021/12/17 08:13:58;;;;;;;28.00;7.97;;;;;;;3.92;88.61;102424.92;1681431;82;98359;-71
2021/12/17 08:23:09;;;;;;;27.00;6.58;;;;;;;3.95;88.53;102420.09;1685227;82;98434;-72
2021/12/17 08:26:58;;;;;;;32.00;7.97;;;;;;;3.96;88.32;102396.67;1703719;82;26545;-71
2021/12/17 08:29:43;;;;;;;33.02;8.15;;;;;;;3.94;88.13;102405.94;1700508;82;25953;-71
2021/12/17 08:31:55;;;;;;;38.10;7.55;;;;;;;3.92;88.09;102394.42;1700255;82;98406;-70
2021/12/17 08:34:22;;;;;;;40.05;9.18;;;;;;;3.92;87.95;102397.08;1707923;82;26154;-70
2021/12/17 08:36:47;;;;;;;36.98;10.55;;;;;;;3.96;87.96;102404.20;1713422;82;98451;-71
2021/12/17 08:39:14;;;;;;;36.93;9.65;;;;;;;3.98;87.90;102406.88;1699611;82;25858;-72
2021/12/17 08:41:42;;;;;;;35.40;9.90;;;;;;;3.99;87.88;102404.23;1701682;82;98742;-69
2021/12/17 08:44:09;;;;;;;34.27;9.43;;;;;;;4.02;87.90;102411.34;1695108;82;27508;-69
2021/12/17 08:46:36;;;;;;;37.38;9.28;;;;;;;4.05;87.85;102412.27;1703374;82;25943;-69
2021/12/17 08:49:05;;;;;;;34.10;10.90;;;;;;;4.07;87.85;102410.95;1694124;83;98526;-72
2021/12/17 08:51:31;;;;;;;41.37;10.63;;;;;;;4.07;87.80;102421.57;1718650;81;25890;-69
2021/12/17 08:53:58;;;;;;;38.33;12.47;;;;;;;4.10;87.69;102428.24;1701452;82;98829;-69
2021/12/17 08:56:34;;;;;;;43.10;12.03;;;;;;;4.11;87.71;102432.67;1720168;82;27364;-69
2021/12/17 08:59:04;;;;;;;35.28;12.13;;;;;;;4.14;87.71;102437.58;1717760;81;26151;-71
2021/12/17 09:01:30;;;;;;;36.83;12.53;;;;;;;4.18;87.68;102442.48;1716689;81;98794;-70
2021/12/17 09:03:56;;;;;;;42.67;12.15;;;;;;;4.19;87.66;102443.84;1718486;82;26373;-67
2021/12/17 09:06:26;;;;;;;35.78;10.78;;;;;;;4.21;87.65;102436.78;1713881;81;98912;-68
2021/12/17 09:08:54;;;;;;;41.95;12.80;;;;;;;4.23;87.61;102427.07;1717671;81;28238;-70
2021/12/17 09:11:18;;;;;;;38.15;10.50;;;;;;;4.26;87.53;102418.25;1716523;81;25938;-69
2021/12/17 09:13:44;;;;;;;32.85;9.85;;;;;;;4.28;87.50;102415.17;1700304;82;99083;-70
2021/12/17 09:16:10;;;;;;;37.67;10.00;;;;;;;4.31;87.33;102422.28;1701696;82;25847;-70
2021/12/17 09:18:36;;;;;;;35.10;10.60;;;;;;;4.32;87.37;102417.43;1688137;82;99082;-67
2021/12/17 09:21:02;;;;;;;39.13;10.40;;;;;;;4.36;87.41;102419.23;1676695;82;28088;-68
2021/12/17 09:23:27;;;;;;;33.13;9.10;;;;;;;4.40;87.33;102414.42;1688629;82;25867;-67
2021/12/17 09:25:53;;;;;;;32.63;9.45;;;;;;;4.41;87.20;102406.47;1687608;82;98528;-68
2021/12/17 09:28:19;;;;;;;29.32;9.43;;;;;;;4.43;87.08;102412.69;1680779;83;25844;-67
2021/12/17 09:30:45;;;;;;;31.60;8.48;;;;;;;4.47;86.94;102424.22;1684684;83;98567;-68
2021/12/17 09:33:13;;;;;;;34.33;8.55;;;;;;;4.49;86.87;102422.48;1682047;83;26847;-69
2021/12/17 09:35:39;;;;;;;33.25;8.88;;;;;;;4.54;86.86;102456.17;1684040;83;98628;-72
2021/12/17 09:38:04;;;;;;;23.90;8.40;;;;;;;4.60;86.60;102436.75;1698319;82;25770;-71
2021/12/17 09:40:30;;;;;;;34.45;7.97;;;;;;;4.64;86.51;102431.92;1699936;82;25896;-70
2021/12/17 09:42:56;;;;;;;27.98;8.93;;;;;;;4.67;86.54;102427.96;1699536;82;98587;-70
2021/12/17 09:45:22;;;;;;;34.92;8.70;;;;;;;4.73;86.41;102449.27;1696852;82;27438;-72
2021/12/17 09:47:48;;;;;;;30.90;8.23;;;;;;;4.76;86.32;102446.64;1674483;82;98643;-71
2021/12/17 09:50:20;;;;;;;27.77;8.23;;;;;;;4.83;86.33;102438.30;1676412;82;25944;-71
2021/12/17 09:52:46;;;;;;;25.97;7.12;;;;;;;4.89;86.35;102439.23;1668963;83;26443;-70
2021/12/17 09:55:14;;;;;;;37.53;7.28;;;;;;;4.96;86.34;102441.51;1672011;83;97777;-72
2021/12/17 09:57:40;;;;;;;30.35;7.40;;;;;;;4.98;86.07;102445.06;1672941;83;26938;-71
2021/12/17 10:00:16;;;;;;;21.52;5.53;;;;;;;5.01;86.03;102448.19;1674506;82;98781;-73
2021/12/17 10:02:44;;;;;;;29.27;7.53;;;;;;;5.03;85.81;102434.03;1670288;83;25927;-70
2021/12/17 10:05:15;;;;;;;31.77;6.30;;;;;;;5.02;85.58;102445.55;1670449;84;26651;-70
2021/12/17 10:07:44;;;;;;;31.48;5.97;;;;;;;5.03;85.39;102441.12;1693641;82;98486;-70
2021/12/17 10:10:11;;;;;;;33.67;5.58;;;;;;;5.07;85.45;102438.94;1693040;82;27601;-71
2021/12/17 10:12:39;;;;;;;29.45;4.87;;;;;;;5.11;85.10;102454.03;1697589;82;98547;-70
2021/12/17 10:15:20;;;;;;;25.00;4.22;;;;;;;5.10;84.94;102439.85;1693331;82;26512;-70
2021/12/17 10:18:01;;;;;;;30.82;5.12;;;;;;;5.09;84.70;102441.17;1689403;82;99035;-72
2021/12/17 10:20:30;;;;;;;18.40;3.83;;;;;;;5.08;84.65;102432.30;1698283;82;25782;-70
2021/12/17 10:23:04;;;;;;;24.50;4.58;;;;;;;5.05;84.50;102448.23;1696751;82;27369;-70
2021/12/17 10:25:31;;;;;;;25.25;4.05;;;;;;;5.06;84.48;102437.16;1695414;82;98891;-69
2021/12/17 10:28:03;;;;;;;30.17;5.28;;;;;;;5.08;84.48;102440.72;1695163;82;25823;-70
2021/12/17 10:30:30;;;;;;;21.93;4.90;;;;;;;5.12;84.71;102440.75;1691662;82;98560;-70
2021/12/17 10:33:01;;;;;;;19.40;4.50;;;;;;;5.17;84.67;102436.80;1678133;83;25895;-71
2021/12/17 10:35:31;;;;;;;21.68;4.25;;;;;;;5.19;84.36;102439.92;1675513;82;28069;-72
2021/12/17 10:38:04;;;;;;;22.13;4.12;;;;;;;5.22;84.10;102439.02;1666104;83;98253;-73
2021/12/17 10:40:36;;;;;;;22.22;4.58;;;;;;;5.24;84.21;102442.58;1665120;83;25748;-72
2021/12/17 10:43:20;;;;;;;22.52;4.30;;;;;;;5.26;84.24;102430.19;1663168;84;98650;-71
2021/12/17 10:46:00;;;;;;;25.32;3.75;;;;;;;5.25;83.49;102443.03;1661686;84;25846;-72
2021/12/17 10:48:24;;;;;;;27.05;4.62;;;;;;;5.21;83.40;102437.23;1662946;83;98642;-72
2021/12/17 10:50:54;;;;;;;24.37;4.20;;;;;;;5.20;83.25;102430.18;1661999;84;26039;-71
2021/12/17 10:53:23;;;;;;;26.20;4.78;;;;;;;5.18;83.28;102446.12;1661171;84;25828;-72
2021/12/17 10:55:49;;;;;;;20.65;4.17;;;;;;;5.17;82.88;102434.14;1636873;86;98569;-71
2021/12/17 10:58:15;;;;;;;19.85;4.05;;;;;;;5.18;82.68;102446.12;1657350;85;25833;-73
2021/12/17 11:01:06;;;;;;;25.00;5.05;;;;;;;5.17;82.51;102427.06;1652180;84;98508;-72
2021/12/17 11:03:40;;;;;;;23.10;4.53;;;;;;;5.20;82.56;102419.07;1653802;84;25841;-69
2021/12/17 11:06:07;;;;;;;23.98;4.58;;;;;;;5.23;82.50;102425.73;1634191;85;98673;-69
2021/12/17 11:08:37;;;;;;;20.17;3.85;;;;;;;5.20;82.33;102432.84;1646459;85;26273;-69
2021/12/17 11:11:10;;;;;;;28.23;4.08;;;;;;;5.17;82.25;102439.46;1645918;85;26824;-70
2021/12/17 11:13:39;;;;;;;38.30;6.97;;;;;;;5.20;82.47;102442.14;1645583;85;98622;-71
2021/12/17 11:16:06;;;;;;;10.67;3.10;;;;;;;5.22;82.32;102444.34;1642863;85;26500;-70
2021/12/17 11:18:32;;;;;;;20.35;4.37;;;;;;;5.20;81.94;102440.81;1641650;85;98524;-68
2021/12/17 11:20:58;;;;;;;27.30;4.37;;;;;;;5.19;82.05;102444.34;1665118;84;25850;-68
2021/12/17 11:23:25;;;;;;;22.58;4.12;;;;;;;5.22;82.27;102440.34;1663613;84;26410;-69
2021/12/17 11:25:55;;;;;;;17.05;4.65;;;;;;;5.27;82.45;102442.60;1650880;84;98423;-70
2021/12/17 11:28:23;;;;;;;23.95;4.87;;;;;;;5.31;82.35;102447.06;1645442;85;25802;-72
2021/12/17 11:30:51;;;;;;;20.92;4.10;;;;;;;5.29;81.99;102435.97;1661213;84;99024;-70
2021/12/17 11:33:18;;;;;;;22.35;4.65;;;;;;;5.28;81.78;102436.84;1664494;84;26519;-70
2021/12/17 11:35:46;;;;;;;25.80;5.35;;;;;;;5.29;82.07;102438.19;1662546;84;98742;-69
2021/12/17 11:38:37;;;;;;;17.15;4.05;;;;;;;5.31;82.06;102440.41;1660573;84;27466;-73
2021/12/17 11:41:16;;;;;;;30.57;4.60;;;;;;;5.30;81.94;102431.98;1662076;84;25761;-72
2021/12/17 11:43:52;;;;;;;25.23;4.22;;;;;;;5.28;81.90;102447.04;1665477;84;98547;-70
2021/12/17 11:46:32;;;;;;;23.38;3.72;;;;;;;5.27;81.93;102445.27;1662615;83;26503;-70
2021/12/17 11:49:02;;;;;;;24.70;4.53;;;;;;;5.25;81.80;102443.03;1664954;84;98845;-71
2021/12/17 11:51:32;;;;;;;28.87;4.17;;;;;;;5.25;81.85;102440.81;1665585;83;27395;-71
2021/12/17 11:54:06;;;;;;;18.98;3.70;;;;;;;5.26;81.88;102434.61;1627950;85;99076;-72
2021/12/17 11:56:39;;;;;;;23.40;5.03;;;;;;;5.28;81.77;102435.52;1647157;85;26125;-71
2021/12/17 11:59:05;;;;;;;26.45;4.87;;;;;;;5.29;81.89;102445.27;1652517;84;25926;-71
2021/12/17 12:01:55;;;;;;;24.85;4.62;;;;;;;5.31;81.85;102439.09;1654643;85;98440;-71
2021/12/17 12:04:26;;;;;;;20.40;5.05;;;;;;;5.31;81.59;102440.41;1665392;84;27891;-72
2021/12/17 12:07:19;;;;;;;21.55;4.62;;;;;;;5.30;81.71;102434.65;1647420;84;99041;-71
2021/12/17 12:10:12;;;;;;;23.32;4.00;;;;;;;5.31;81.79;102424.47;1652931;84;25764;-71
2021/12/17 12:12:50;;;;;;;20.72;3.45;;;;;;;5.27;81.16;102427.98;1659867;85;98946;-69
2021/12/17 12:15:31;;;;;;;20.08;4.62;;;;;;;5.24;81.14;102423.97;1654730;84;26405;-70
2021/12/17 12:18:07;;;;;;;24.20;4.55;;;;;;;5.20;80.80;102415.08;1654960;85;99015;-70
2021/12/17 12:20:51;;;;;;;20.62;4.78;;;;;;;5.19;81.13;102412.45;1657919;84;25861;-71
2021/12/17 12:23:32;;;;;;;28.32;5.50;;;;;;;5.20;80.78;102406.25;1656593;84;25866;-70
2021/12/17 12:26:12;;;;;;;24.02;4.05;;;;;;;5.20;80.91;102412.90;1658612;85;98361;-70
2021/12/17 12:28:54;;;;;;;25.88;3.77;;;;;;;5.24;80.81;102410.68;1640487;85;25854;-70
2021/12/17 12:31:34;;;;;;;31.45;5.03;;;;;;;5.26;81.03;102419.55;1652914;84;99308;-70
2021/12/17 12:34:06;;;;;;;20.50;5.03;;;;;;;5.30;80.73;102416.48;1661284;84;25873;-71
2021/12/17 12:37:04;;;;;;;22.62;5.08;;;;;;;5.28;80.47;102419.13;1657835;84;99165;-70
2021/12/17 12:39:47;;;;;;;23.67;4.50;;;;;;;5.28;80.45;102416.47;1652045;84;25798;-70
2021/12/17 12:42:22;;;;;;;15.45;4.30;;;;;;;5.29;80.54;102418.69;1650509;84;98761;-70
2021/12/17 12:44:53;;;;;;;27.15;5.75;;;;;;;5.30;80.31;102418.70;1667635;83;27518;-71
2021/12/17 12:47:31;;;;;;;22.32;3.70;;;;;;;5.29;80.25;102426.22;1662824;83;25837;-71
2021/12/17 12:50:08;;;;;;;23.87;4.90;;;;;;;5.32;80.33;102416.05;1650087;85;98414;-70
2021/12/17 12:52:41;;;;;;;29.05;5.42;;;;;;;5.29;79.98;102404.95;1655252;84;26188;-71
2021/12/17 12:55:30;;;;;;;22.50;4.12;;;;;;;5.30;79.43;102414.70;1658599;84;98560;-71
2021/12/17 12:58:07;;;;;;;20.92;4.00;;;;;;;5.26;79.38;102406.27;1662305;83;27503;-71
2021/12/17 13:00:54;;;;;;;18.77;4.03;;;;;;;5.25;79.65;102407.14;1648886;84;98560;-71
2021/12/17 13:03:27;;;;;;;20.20;3.83;;;;;;;5.27;79.33;102417.34;1600683;86;26609;-71
2021/12/17 13:05:54;;;;;;;19.52;3.80;;;;;;;5.23;79.31;102416.44;1625305;86;98765;-71
2021/12/17 13:08:22;;;;;;;18.70;3.67;;;;;;;5.26;79.39;102416.89;1643481;85;26655;-70
2021/12/17 13:11:17;;;;;;;16.90;4.42;;;;;;;5.22;79.12;102406.68;1631502;86;27398;-70
2021/12/17 13:13:51;;;;;;;18.75;4.35;;;;;;;5.18;79.36;102407.57;1666274;84;98635;-70
2021/12/17 13:16:34;;;;;;;23.95;6.62;;;;;;;5.14;79.27;102412.86;1666131;84;25883;-71
2021/12/17 13:21:58;;;;;;;25.15;4.87;;;;;;;5.15;79.37;102423.94;1655850;83;25796;-70
2021/12/17 13:24:25;;;;;;;27.10;4.60;;;;;;;5.16;79.42;102414.65;1661142;84;99104;-72
2021/12/17 13:26:58;;;;;;;26.10;5.12;;;;;;;5.15;79.56;102415.52;1647812;84;25507;-72
2021/12/17 13:29:35;;;;;;;26.97;4.90;;;;;;;5.13;79.50;102413.73;1642518;85;25920;-72
2021/12/17 13:32:15;;;;;;;24.20;4.28;;;;;;;5.08;79.51;102419.45;1576742;88;98410;-72
2021/12/17 13:34:50;;;;;;;19.42;5.65;;;;;;;5.04;79.52;102414.99;1572381;89;26571;-72
2021/12/17 13:37:27;;;;;;;28.07;4.60;;;;;;;4.99;79.58;102423.37;1625419;86;98616;-74
2021/12/17 13:40:07;;;;;;;32.53;5.15;;;;;;;4.96;79.68;102421.58;1641734;85;26474;-69
2021/12/17 13:42:42;;;;;;;24.77;4.58;;;;;;;4.91;79.51;102420.65;1639185;85;98574;-70
2021/12/17 13:45:14;;;;;;;17.23;4.62;;;;;;;4.84;79.48;102431.66;1636117;87;26469;-70
2021/12/17 13:47:45;;;;;;;17.50;3.98;;;;;;;4.82;79.41;102425.89;1660994;85;98752;-70
2021/12/17 13:50:16;;;;;;;26.17;5.45;;;;;;;4.78;79.51;102436.92;1668271;84;27388;-73
2021/12/17 13:52:54;;;;;;;;;;;;;;;4.77;79.59;102436.91;1647849;86;26005;-72
2021/12/17 13:55:33;;;;;;;32.45;5.92;;;;;;;4.73;79.65;102432.44;1644036;86;83873;-71
2021/12/17 13:58:06;;;;;;;21.00;3.95;;;;;;;4.68;79.71;102432.41;1629289;86;26343;-74
2021/12/17 14:00:39;;;;;;;18.87;4.72;;;;;;;4.65;79.72;102442.11;1646292;85;98866;-74
2021/12/17 14:03:05;;;;;;;25.90;6.35;;;;;;;4.62;79.79;102440.31;1666911;84;28156;-73
2021/12/17 14:05:40;;;;;;;24.55;5.60;;;;;;;4.54;79.69;102436.69;1665961;84;26054;-71
2021/12/17 14:08:15;;;;;;;18.95;4.83;;;;;;;4.55;79.81;102444.67;1646227;84;98343;-75
2021/12/17 14:10:44;;;;;;;27.70;5.78;;;;;;;4.54;79.90;102442.00;1648086;85;25837;-73
2021/12/17 14:13:29;;;;;;;22.00;5.03;;;;;;;4.50;79.75;102441.52;1632635;85;98679;-74
2021/12/17 14:15:57;;;;;;;26.62;4.80;;;;;;;4.48;79.91;102440.17;1633980;84;27020;-73